createdAt,value
2023-03-06T00:17:58.231Z,0
2023-03-06T00:32:54.356Z,0.01
2023-03-06T00:47:50.710Z,0
2023-03-06T01:02:47.604Z,0
2023-03-06T01:17:43.564Z,0
2023-03-06T01:32:39.851Z,0
2023-03-06T01:47:35.927Z,0
2023-03-06T02:02:32.708Z,0
2023-03-06T02:17:29.461Z,0
2023-03-06T02:32:25.858Z,0
2023-03-06T02:47:22.109Z,0
2023-03-06T03:02:18.427Z,0
2023-03-06T03:17:15.033Z,0
2023-03-06T03:32:10.893Z,0
2023-03-06T03:47:07.545Z,0
2023-03-06T04:02:03.889Z,0
2023-03-06T04:17:00.186Z,0
2023-03-06T04:31:56.595Z,0
2023-03-06T04:46:53.175Z,0
2023-03-06T05:01:49.862Z,0
2023-03-06T05:16:45.853Z,0
2023-03-06T05:31:42.843Z,0
2023-03-06T05:46:38.700Z,0.01
2023-03-06T06:01:34.734Z,0.01
2023-03-06T06:16:30.468Z,0.03
2023-03-06T06:31:26.314Z,0.02
2023-03-06T06:46:59.180Z,0.03
2023-03-06T07:01:18.707Z,0.04
2023-03-06T07:16:14.761Z,0.05
2023-03-06T07:31:10.759Z,0.06
2023-03-06T07:46:07.041Z,0.06
2023-03-06T10:00:36.256Z,0.18
2023-03-06T10:15:32.870Z,0.13
2023-03-06T10:30:28.688Z,0.08
2023-03-06T11:00:21.128Z,0.24
2023-03-06T11:15:18.145Z,0.24
2023-03-06T12:15:03.931Z,0.34
2023-03-06T12:59:51.819Z,0.11
2023-03-06T13:14:53.980Z,0.11
2023-03-06T13:29:44.405Z,0.1
2023-03-06T13:44:40.761Z,0.15
2023-03-06T13:59:36.187Z,0.11
2023-03-06T14:14:32.286Z,0.13
2023-03-06T14:29:28.169Z,0.06
2023-03-06T14:59:19.493Z,0
2023-03-06T15:14:15.217Z,0.05
2023-03-06T15:29:11.721Z,0.06
2023-03-06T15:44:08.054Z,0.05
2023-03-06T15:59:04.039Z,0.06
2023-03-06T16:13:59.823Z,0.05
2023-03-06T16:28:55.626Z,0.03
2023-03-06T16:43:51.761Z,0.03
2023-03-06T16:58:47.871Z,0.02
2023-03-06T17:13:43.733Z,0.02
2023-03-06T17:28:39.943Z,0.02
2023-03-06T17:43:36.079Z,0.01
2023-03-06T17:58:32.474Z,0
2023-03-06T18:13:28.620Z,0
2023-03-06T18:28:24.588Z,0
2023-03-06T18:43:20.632Z,0.01
2023-03-06T18:58:16.565Z,0
2023-03-06T19:13:12.962Z,0
2023-03-06T19:28:09.396Z,0
2023-03-06T19:43:05.394Z,0
2023-03-06T19:58:01.880Z,0
2023-03-06T20:27:54.207Z,0
2023-03-06T20:57:46.188Z,0
2023-03-06T21:27:38.943Z,0
2023-03-06T21:42:35.360Z,0
2023-03-06T21:57:31.672Z,0.01
2023-03-06T22:27:23.627Z,0
2023-03-06T22:57:16.196Z,0
2023-03-06T23:27:08.091Z,0
2023-03-06T23:57:00.857Z,0
